Colton, Ohio
Current Conditions -  °F | °C
As of 6:52 PM on Monday 20 Oct 2014 (Local Time) from KTOL Reporting Station
Overcast Overcast  
Wind Chill: 54°   Ceiling: 1500
Heat Index: 54°   Visibility: 9mi
Dew Point: 50°   Wind: 8mph
Humidity: 86%   Direction: 270°W
Pressure: 29.83"   Gusts: NA
Location:  41.46°N, 83.95°W
Report Text: KTOL 202252Z 27007KT 9SM OVC015 12/10 A2983 RMK AO2 SLP103 T01220100 $
Loading
Personal Weather Stations






























Interactive Weather Map
Tropical Storm Tracking
New forecast layout! Learn more

10-Day Weather Forecast

Advertisements
Track Severe Weather on mobile